Time;durP1;ratioP1;P1;durP2;ratioP2;P2;SDS_P1;SDS_P2;PMS_P1;PMS_P2;Temp;Humidity;BMP_temperature;BMP_pressure;BME280_temperature;BME280_humidity;BME280_pressure;Samples;Min_cycle;Max_cycle;Signal;HPM_P1;HPM_P2
2022/01/19 00:01:00;;;;;;;16.55;11.77;;;;;;;0.59;75.84;97529.13;10339118;28;99760;-64
2022/01/19 00:06:05;;;;;;;16.52;11.65;;;;;;;0.59;75.89;97518.84;10339962;28;98270;-63
2022/01/19 00:11:08;;;;;;;22.50;13.35;;;;;;;0.65;75.60;97498.03;10348733;28;99569;-69
2022/01/19 00:16:11;;;;;;;20.08;13.40;;;;;;;0.65;75.04;97479.19;10339020;28;98887;-63
2022/01/19 00:21:16;;;;;;;17.95;12.02;;;;;;;0.71;75.12;97502.97;10339085;28;97837;-63
2022/01/19 00:26:19;;;;;;;20.13;12.65;;;;;;;0.56;75.42;97534.38;10347994;28;97995;-62
2022/01/19 00:31:22;;;;;;;17.83;11.88;;;;;;;0.43;75.50;97536.53;10351740;28;98417;-63
2022/01/19 00:36:26;;;;;;;21.90;13.32;;;;;;;0.36;75.79;97550.50;10343957;28;99246;-63
2022/01/19 00:41:29;;;;;;;22.80;13.77;;;;;;;0.12;76.04;97531.63;10347375;28;98639;-67
2022/01/19 00:46:32;;;;;;;16.80;10.98;;;;;;;0.09;76.77;97539.41;10341614;28;98311;-62
2022/01/19 00:51:36;;;;;;;19.90;12.73;;;;;;;0.13;76.24;97528.13;10345879;27;98450;-63
2022/01/19 00:56:39;;;;;;;15.98;10.40;;;;;;;0.11;75.96;97522.22;10346646;28;98603;-62
2022/01/19 01:01:42;;;;;;;19.27;11.70;;;;;;;0.08;76.11;97515.47;10344755;28;99457;-67
2022/01/19 01:06:47;;;;;;;18.75;11.68;;;;;;;0.04;75.94;97504.41;10351089;28;99554;-63
2022/01/19 01:11:59;;;;;;;17.10;10.45;;;;;;;0.13;75.88;97495.56;10344228;28;97907;-63
2022/01/19 01:18:16;;;;;;;20.38;12.20;;;;;;;0.09;76.07;97498.31;10345297;28;97768;-66
2022/01/19 01:22:38;;;;;;;18.15;11.43;;;;;;;-0.02;76.02;97516.66;10346591;28;99384;-68
2022/01/19 01:27:41;;;;;;;20.27;11.60;;;;;;;-0.06;76.43;97525.34;10348846;28;97080;-63
2022/01/19 01:32:44;;;;;;;15.05;10.23;;;;;;;-0.03;75.92;97523.50;10341957;28;99370;-65
2022/01/19 01:37:48;;;;;;;18.02;11.88;;;;;;;-0.17;76.28;97518.00;10340855;28;98394;-62
2022/01/19 01:42:52;;;;;;;15.40;10.57;;;;;;;-0.23;76.54;97510.47;10340772;28;99680;-67
2022/01/19 01:48:04;;;;;;;16.27;10.63;;;;;;;-0.29;76.57;97514.09;10345533;28;98298;-63
2022/01/19 01:53:27;;;;;;;20.33;11.27;;;;;;;-0.36;77.13;97498.03;10341086;28;98581;-63
2022/01/19 01:58:32;;;;;;;16.38;11.43;;;;;;;-0.28;76.35;97491.84;10346517;28;98812;-64
2022/01/19 02:03:38;;;;;;;16.92;11.02;;;;;;;-0.19;75.84;97494.94;10345588;28;97647;-64
2022/01/19 02:08:49;;;;;;;16.48;10.93;;;;;;;-0.20;76.34;97492.41;10340245;28;99952;-63
2022/01/19 02:24:42;;;;;;;16.17;11.35;;;;;;;-0.37;76.45;97470.69;10345396;28;98301;-62
2022/01/19 02:40:37;;;;;;;21.90;11.70;;;;;;;-0.38;76.42;97437.38;10171926;28;99718;-62
2022/01/19 02:51:03;;;;;;;19.10;11.50;;;;;;;-0.41;76.55;97427.19;10133725;28;99194;-63
2022/01/19 02:56:12;;;;;;;19.95;12.65;;;;;;;-0.48;76.76;97426.56;10141331;28;97373;-63
2022/01/19 03:11:57;;;;;;;19.98;12.65;;;;;;;-0.37;76.05;97411.66;10322133;28;99884;-62
2022/01/19 03:17:00;;;;;;;18.88;12.18;;;;;;;-0.41;76.40;97407.47;10326990;28;99193;-62
2022/01/19 03:22:04;;;;;;;18.27;12.07;;;;;;;-0.42;76.44;97405.81;10338940;28;97369;-63
2022/01/19 03:27:08;;;;;;;19.63;12.05;;;;;;;-0.38;76.30;97407.38;10347087;28;98462;-65
2022/01/19 03:32:12;;;;;;;17.55;11.32;;;;;;;-0.44;76.00;97406.75;10345251;28;98386;-65
2022/01/19 03:37:15;;;;;;;19.45;11.57;;;;;;;-0.51;76.25;97406.16;10338119;28;97557;-63
2022/01/19 03:42:19;;;;;;;17.77;10.77;;;;;;;-0.56;76.34;97395.19;10340288;28;101217;-63
2022/01/19 03:47:22;;;;;;;21.13;12.88;;;;;;;-0.72;76.31;97393.13;10340602;28;100598;-64
2022/01/19 03:52:25;;;;;;;19.92;12.82;;;;;;;-0.90;77.34;97386.00;10343011;28;100382;-65
2022/01/19 03:57:30;;;;;;;18.60;12.70;;;;;;;-0.99;77.17;97384.56;10337640;28;97386;-66
2022/01/19 04:02:34;;;;;;;21.10;12.90;;;;;;;-1.08;76.92;97374.63;10341745;28;98238;-63
2022/01/19 04:07:37;;;;;;;19.90;12.30;;;;;;;-1.17;77.41;97369.75;10339836;28;98483;-63
2022/01/19 04:12:47;;;;;;;20.05;12.48;;;;;;;-1.31;77.52;97368.47;10343023;28;98633;-64
2022/01/19 04:17:53;;;;;;;18.80;11.73;;;;;;;-1.42;77.40;97364.56;10340669;28;98798;-62
2022/01/19 04:22:56;;;;;;;17.85;11.43;;;;;;;-1.47;77.36;97355.25;10341740;28;98413;-62
2022/01/19 04:28:06;;;;;;;21.02;13.10;;;;;;;-1.57;77.80;97361.59;10334917;28;98452;-62
2022/01/19 04:33:13;;;;;;;22.02;13.20;;;;;;;-1.64;77.35;97360.06;10347612;28;97001;-64
2022/01/19 04:44:08;;;;;;;18.63;11.60;;;;;;;-1.74;77.33;97353.53;10334443;28;99635;-65
2022/01/19 04:54:48;;;;;;;18.42;11.27;;;;;;;-1.85;77.75;97341.91;10266914;28;98764;-62
2022/01/19 05:05:20;;;;;;;23.13;13.30;;;;;;;-2.21;77.60;97338.66;10271745;28;98379;-65
2022/01/19 05:15:44;;;;;;;25.48;14.35;;;;;;;-2.45;78.47;97335.03;10271011;28;97941;-62
2022/01/19 05:20:48;;;;;;;25.87;15.03;;;;;;;-2.51;78.53;97335.19;10271499;28;98443;-62
2022/01/19 05:25:51;;;;;;;24.40;14.18;;;;;;;-2.42;78.23;97323.00;10274398;28;98658;-62
2022/01/19 05:31:00;;;;;;;23.40;14.48;;;;;;;-2.49;79.29;97318.06;10318286;28;96996;-67
2022/01/19 05:36:04;;;;;;;24.30;14.35;;;;;;;-2.64;79.32;97320.16;10340875;28;98823;-62
2022/01/19 05:41:07;;;;;;;21.48;12.73;;;;;;;-2.65;78.48;97317.66;10339580;28;98318;-62
2022/01/19 05:46:11;;;;;;;23.58;13.90;;;;;;;-2.65;79.06;97323.59;10344757;28;98634;-62
2022/01/19 05:51:14;;;;;;;21.77;13.73;;;;;;;-2.64;79.48;97309.94;10343814;28;98414;-62
2022/01/19 05:56:17;;;;;;;24.17;13.18;;;;;;;-2.66;78.99;97313.44;10347674;28;100183;-68
2022/01/19 06:01:21;;;;;;;22.15;12.90;;;;;;;-2.72;78.55;97311.84;10346928;28;98981;-63
2022/01/19 06:06:24;;;;;;;21.08;12.38;;;;;;;-2.73;79.54;97310.19;10346769;28;97284;-62
2022/01/19 06:11:27;;;;;;;21.45;12.02;;;;;;;-2.82;78.78;97312.97;10349143;28;98494;-65
2022/01/19 06:16:31;;;;;;;19.50;12.82;;;;;;;-2.81;79.73;97304.41;10345744;28;100367;-61
2022/01/19 06:21:34;;;;;;;20.17;11.25;;;;;;;-2.84;79.62;97307.88;10343229;28;98771;-68
2022/01/19 06:26:38;;;;;;;25.05;13.73;;;;;;;-2.84;79.39;97312.16;10344368;28;99975;-65
2022/01/19 06:31:42;;;;;;;28.60;16.00;;;;;;;-2.87;79.61;97309.69;10349943;28;97012;-63
2022/01/19 06:36:45;;;;;;;28.40;15.77;;;;;;;-2.91;79.63;97310.66;10344999;28;98812;-63
2022/01/19 06:41:48;;;;;;;27.73;16.45;;;;;;;-3.00;79.68;97306.59;10340855;28;99620;-62
2022/01/19 06:46:53;;;;;;;29.77;16.77;;;;;;;-3.01;79.79;97297.25;10341671;28;100521;-65
2022/01/19 06:51:56;;;;;;;22.80;13.27;;;;;;;-3.01;78.84;97294.69;10338734;28;98421;-62
2022/01/19 06:56:59;;;;;;;26.70;14.52;;;;;;;-3.09;79.73;97291.50;10342806;28;98801;-62
2022/01/19 07:02:03;;;;;;;26.05;14.32;;;;;;;-3.19;80.11;97291.72;10344442;28;97860;-63
2022/01/19 07:07:06;;;;;;;20.80;12.00;;;;;;;-3.24;79.09;97302.94;10343797;28;98360;-62
2022/01/19 07:12:10;;;;;;;20.23;12.65;;;;;;;-3.27;79.82;97292.78;10343761;28;100216;-65
2022/01/19 07:17:14;;;;;;;19.88;12.50;;;;;;;-3.27;79.67;97292.78;10347655;28;100765;-62
2022/01/19 07:22:17;;;;;;;28.60;15.80;;;;;;;-3.46;80.06;97288.13;10354358;28;97295;-62
2022/01/19 07:27:21;;;;;;;27.65;16.42;;;;;;;-3.54;80.88;97290.84;10353300;28;100318;-61
2022/01/19 07:32:29;;;;;;;24.85;13.60;;;;;;;-3.57;81.10;97292.63;10349022;28;98684;-62
2022/01/19 07:37:32;;;;;;;23.50;13.63;;;;;;;-3.47;81.06;97295.81;10345224;28;98492;-62
2022/01/19 07:42:35;;;;;;;24.38;13.68;;;;;;;-3.40;79.68;97290.53;10345185;28;98287;-64
2022/01/19 07:47:40;;;;;;;24.73;14.40;;;;;;;-3.37;79.68;97287.91;10344521;28;98213;-62
2022/01/19 07:52:42;;;;;;;25.25;14.18;;;;;;;-3.30;79.41;97292.88;10340305;28;97059;-62
2022/01/19 07:57:49;;;;;;;26.10;14.93;;;;;;;-3.26;79.66;97294.47;10347293;28;99058;-62
2022/01/19 08:02:53;;;;;;;28.65;15.93;;;;;;;-3.24;80.14;97300.38;10369874;28;96874;-61
2022/01/19 08:07:56;;;;;;;21.60;13.73;;;;;;;-3.13;80.38;97295.88;10368044;28;96797;-62
2022/01/19 08:13:02;;;;;;;24.60;13.68;;;;;;;-3.03;80.37;97292.19;10354490;28;97841;-61
2022/01/19 08:18:07;;;;;;;25.48;14.40;;;;;;;-2.92;79.40;97301.28;10368684;28;100761;-62
2022/01/19 08:23:09;;;;;;;23.60;14.63;;;;;;;-2.85;79.60;97306.22;10367640;28;97077;-62
2022/01/19 08:28:12;;;;;;;26.45;14.57;;;;;;;-2.76;80.52;97307.69;10369783;28;96820;-61
2022/01/19 08:33:17;;;;;;;24.63;14.57;;;;;;;-2.71;79.89;97312.72;10367593;28;96782;-62
2022/01/19 08:38:19;;;;;;;26.02;14.93;;;;;;;-2.62;79.87;97313.28;10342280;28;96741;-62
2022/01/19 08:43:22;;;;;;;28.02;16.65;;;;;;;-2.57;80.61;97304.66;10381840;28;101713;-62
2022/01/19 08:48:27;;;;;;;26.83;15.75;;;;;;;-2.44;79.72;97301.75;10356553;28;99679;-62
2022/01/19 08:53:30;;;;;;;27.10;16.03;;;;;;;-2.31;80.45;97307.34;10366608;28;96825;-62
2022/01/19 08:58:33;;;;;;;30.65;18.25;;;;;;;-2.19;80.01;97316.41;10359539;28;96948;-62
2022/01/19 09:03:37;;;;;;;29.08;16.45;;;;;;;-2.05;79.47;97313.47;10364296;28;96748;-63
2022/01/19 09:08:41;;;;;;;23.02;14.43;;;;;;;-1.97;79.98;97315.78;10369112;28;96807;-62
2022/01/19 09:13:44;;;;;;;30.83;17.88;;;;;;;-1.88;80.38;97316.38;10360318;28;97158;-62
2022/01/19 09:18:51;;;;;;;29.40;17.55;;;;;;;-1.73;80.08;97314.22;10352351;28;96910;-61
2022/01/19 09:23:53;;;;;;;25.83;15.48;;;;;;;-1.62;80.06;97312.19;10356953;28;96825;-62
2022/01/19 09:28:56;;;;;;;34.38;20.65;;;;;;;-1.60;79.75;97310.41;10359024;28;97366;-62
2022/01/19 09:34:13;;;;;;;32.05;18.02;;;;;;;-1.43;79.45;97303.91;10360090;28;96692;-62
2022/01/19 09:39:18;;;;;;;34.28;19.83;;;;;;;-1.41;79.53;97310.69;10350097;28;97256;-62
2022/01/19 09:44:24;;;;;;;34.08;20.80;;;;;;;-1.25;79.52;97305.91;10360137;28;96964;-62
2022/01/19 09:49:28;;;;;;;32.97;18.95;;;;;;;-1.17;79.50;97303.09;10361394;28;97157;-62
2022/01/19 09:54:31;;;;;;;35.30;20.07;;;;;;;-1.09;79.92;97301.94;10348692;28;98230;-62
2022/01/19 09:59:35;;;;;;;34.28;20.45;;;;;;;-0.79;79.45;97301.00;10373604;28;96747;-64
2022/01/19 10:04:42;;;;;;;35.63;21.30;;;;;;;-0.61;79.47;97294.41;10370812;28;101684;-62
2022/01/19 10:09:56;;;;;;;35.47;21.38;;;;;;;-0.44;79.50;97299.78;10369040;28;96927;-62
2022/01/19 10:20:25;;;;;;;28.73;17.63;;;;;;;-0.17;79.25;97281.72;10361409;28;96899;-63
2022/01/19 10:25:48;;;;;;;32.28;19.73;;;;;;;-0.03;79.33;97284.59;10363782;28;96844;-62
2022/01/19 10:30:51;;;;;;;32.67;20.00;;;;;;;0.17;79.17;97275.31;10352324;28;96712;-64
2022/01/19 10:35:57;;;;;;;33.65;20.70;;;;;;;0.39;79.19;97275.31;10364125;28;96766;-62
2022/01/19 10:41:06;;;;;;;32.72;18.73;;;;;;;0.46;78.76;97261.31;10358871;28;96959;-62
2022/01/19 10:46:29;;;;;;;32.03;19.65;;;;;;;0.84;78.90;97263.25;10355175;28;98411;-62
2022/01/19 10:51:37;;;;;;;28.00;17.70;;;;;;;1.20;78.88;97252.34;10348066;28;96758;-62
2022/01/19 10:56:40;;;;;;;32.50;19.13;;;;;;;1.53;78.54;97232.84;10357573;28;97254;-63
2022/01/19 11:01:46;;;;;;;29.48;17.63;;;;;;;1.85;77.79;97228.03;10360292;28;97467;-63
2022/01/19 11:06:54;;;;;;;29.00;17.90;;;;;;;2.13;78.01;97216.44;10372326;28;96703;-63
2022/01/19 11:12:02;;;;;;;28.20;17.67;;;;;;;2.42;77.43;97214.22;10361748;28;97127;-63
2022/01/19 11:17:05;;;;;;;25.50;15.40;;;;;;;2.64;76.85;97204.53;10357223;28;97175;-63
2022/01/19 11:22:34;;;;;;;25.05;15.30;;;;;;;2.79;77.27;97196.94;10353955;28;96748;-62
2022/01/19 11:27:39;;;;;;;26.02;15.25;;;;;;;2.81;76.85;97195.13;10357942;28;96741;-62
2022/01/19 11:32:43;;;;;;;22.52;14.38;;;;;;;3.03;76.97;97190.56;10356812;28;96837;-62
2022/01/19 11:37:49;;;;;;;23.52;14.63;;;;;;;3.01;76.82;97179.47;10357074;28;99714;-62
2022/01/19 11:43:19;;;;;;;21.55;13.77;;;;;;;3.17;76.82;97168.34;10347104;28;96703;-62
2022/01/19 11:48:24;;;;;;;20.40;13.80;;;;;;;3.15;76.92;97163.25;10345630;28;96833;-63
2022/01/19 11:53:29;;;;;;;20.45;12.55;;;;;;;3.19;77.33;97153.63;10353847;28;96978;-62
2022/01/19 11:58:32;;;;;;;20.43;14.07;;;;;;;3.17;77.11;97134.78;10354662;28;96871;-64
2022/01/19 12:03:41;;;;;;;21.90;13.07;;;;;;;3.32;76.24;97131.41;10345901;28;98123;-64
2022/01/19 12:09:08;;;;;;;19.77;13.73;;;;;;;3.53;76.09;97120.84;10361361;28;97927;-63
2022/01/19 12:14:17;;;;;;;18.58;12.40;;;;;;;3.82;75.37;97120.09;10354565;28;97455;-63
2022/01/19 12:19:26;;;;;;;17.55;11.55;;;;;;;3.94;75.09;97110.00;10359346;28;97225;-63
2022/01/19 12:24:33;;;;;;;20.83;11.32;;;;;;;4.08;74.37;97111.81;10358225;28;96690;-64
2022/01/19 12:30:02;;;;;;;20.50;11.52;;;;;;;4.13;74.08;97095.13;10368629;28;97312;-65
2022/01/19 12:35:15;;;;;;;16.75;11.45;;;;;;;4.34;74.24;97074.13;10367409;28;97156;-65
2022/01/19 12:40:47;;;;;;;14.48;10.25;;;;;;;4.58;73.32;97053.75;10369061;28;102097;-64
2022/01/19 12:45:51;;;;;;;17.40;11.02;;;;;;;4.77;73.37;97048.31;10366446;28;97188;-65
2022/01/19 12:50:54;;;;;;;14.18;10.65;;;;;;;5.03;73.20;97049.31;10367435;27;97002;-64
2022/01/19 12:56:02;;;;;;;14.63;9.43;;;;;;;5.30;72.78;97048.53;10364888;28;97155;-64
2022/01/19 13:01:07;;;;;;;14.48;7.32;;;;;;;5.40;72.93;97041.88;10366222;28;96904;-64
2022/01/19 13:06:13;;;;;;;14.60;8.23;;;;;;;5.30;73.27;97033.00;10368832;28;96868;-64
2022/01/19 13:11:24;;;;;;;13.77;7.15;;;;;;;5.40;72.94;97038.44;10375381;28;98087;-64
2022/01/19 13:16:37;;;;;;;10.88;7.13;;;;;;;5.56;72.50;97039.13;10368191;28;97272;-65
2022/01/19 13:21:45;;;;;;;11.70;7.47;;;;;;;5.44;72.07;97032.13;10363716;28;101587;-65
2022/01/19 13:26:54;;;;;;;11.30;6.63;;;;;;;5.22;71.89;97022.28;10365009;28;97171;-65
2022/01/19 13:32:00;;;;;;;10.15;6.72;;;;;;;5.23;71.57;97016.19;10374973;28;97262;-64
2022/01/19 13:37:04;;;;;;;10.30;6.47;;;;;;;5.18;71.56;97008.69;10371433;28;97161;-65
2022/01/19 13:42:09;;;;;;;12.15;7.40;;;;;;;5.10;71.39;97003.16;10379370;28;97005;-64
2022/01/19 13:47:16;;;;;;;10.13;7.33;;;;;;;5.08;71.11;96999.81;10373299;28;97312;-64
2022/01/19 13:52:22;;;;;;;11.55;6.72;;;;;;;5.04;70.27;96988.00;10375361;28;96886;-63
2022/01/19 13:57:30;;;;;;;9.07;6.55;;;;;;;5.01;70.51;96993.34;10370188;28;97099;-64
2022/01/19 14:02:33;;;;;;;10.38;6.82;;;;;;;5.00;70.13;96997.72;10373469;28;96857;-64
2022/01/19 14:07:56;;;;;;;11.18;6.72;;;;;;;4.89;70.21;97011.31;10370225;28;98071;-65
2022/01/19 14:13:23;;;;;;;7.60;4.57;;;;;;;4.88;69.14;97004.47;10373289;28;97043;-64
2022/01/19 14:18:26;;;;;;;7.25;4.65;;;;;;;4.76;68.93;97000.03;10362437;28;96986;-64
2022/01/19 14:23:29;;;;;;;7.43;4.70;;;;;;;4.64;68.84;97001.63;10372043;28;97041;-64
2022/01/19 14:28:33;;;;;;;8.40;4.75;;;;;;;4.53;68.06;96989.31;10373069;28;96723;-64
2022/01/19 14:33:48;;;;;;;9.10;4.73;;;;;;;4.44;67.47;96989.88;10372795;28;97078;-64
2022/01/19 14:38:59;;;;;;;8.23;4.77;;;;;;;4.31;67.76;96976.00;10369421;28;97225;-66
2022/01/19 14:44:10;;;;;;;8.00;5.03;;;;;;;4.15;67.73;96974.31;10370844;28;97311;-65
2022/01/19 14:49:13;;;;;;;8.50;5.32;;;;;;;4.07;67.52;96986.84;10368990;28;96887;-66
2022/01/19 14:54:16;;;;;;;8.85;5.68;;;;;;;3.93;67.69;96989.41;10372314;28;97249;-64
2022/01/19 14:59:24;;;;;;;9.38;4.95;;;;;;;3.91;67.72;96980.91;10370732;28;97297;-65
2022/01/19 15:04:26;;;;;;;10.38;6.07;;;;;;;3.91;67.21;96976.56;10372424;28;96963;-64
2022/01/19 15:09:29;;;;;;;8.20;5.55;;;;;;;3.89;67.35;96972.44;10368536;28;97234;-65
2022/01/19 15:14:34;;;;;;;9.10;4.88;;;;;;;3.89;67.10;96969.84;10371480;28;97147;-64
2022/01/19 15:19:38;;;;;;;9.98;5.10;;;;;;;3.81;67.32;96944.41;10367808;28;97598;-63
2022/01/19 15:24:42;;;;;;;7.55;4.85;;;;;;;3.75;67.24;96955.13;10369657;28;97396;-64
2022/01/19 15:29:46;;;;;;;7.78;4.68;;;;;;;3.71;67.61;96959.66;10369999;28;97552;-64
2022/01/19 15:34:49;;;;;;;9.88;4.82;;;;;;;3.68;66.97;96959.81;10370394;28;97247;-65
2022/01/19 15:39:56;;;;;;;11.32;4.90;;;;;;;3.69;66.50;96953.75;10369928;28;97356;-65
2022/01/19 15:45:00;;;;;;;10.68;5.40;;;;;;;3.68;67.31;96954.66;10367845;28;101826;-64
2022/01/19 15:50:05;;;;;;;10.85;5.90;;;;;;;3.70;67.00;96946.81;10367355;28;97159;-64
2022/01/19 15:55:09;;;;;;;13.43;7.53;;;;;;;3.49;67.86;96956.63;10368990;28;96977;-64
2022/01/19 16:00:34;;;;;;;16.52;8.18;;;;;;;3.19;68.46;96975.47;10369561;28;97515;-64
2022/01/19 16:05:38;;;;;;;;;;;;;;;3.06;68.93;96968.38;10374160;28;97242;-64
2022/01/19 16:10:42;;;;;;;12.60;7.22;;;;;;;3.01;69.35;96969.56;10377068;28;97282;-64
2022/01/19 16:15:47;;;;;;;12.93;7.30;;;;;;;3.06;69.03;96967.56;10368647;28;97134;-65
2022/01/19 16:20:50;;;;;;;;;;;;;;;3.08;69.06;96978.63;10365559;28;96774;-66
2022/01/19 16:26:09;;;;;;;12.30;6.70;;;;;;;3.11;68.31;96975.06;10370263;28;97938;-65
2022/01/19 16:31:16;;;;;;;12.32;6.03;;;;;;;3.10;68.40;96968.22;10366273;27;97132;-65
2022/01/19 16:36:20;;;;;;;11.95;6.78;;;;;;;3.10;68.21;96994.88;10357929;28;96976;-64
2022/01/19 16:41:24;;;;;;;11.50;7.22;;;;;;;3.04;68.12;96990.03;10374501;28;97314;-64
2022/01/19 16:46:29;;;;;;;15.43;8.77;;;;;;;2.98;68.53;96996.38;10370268;28;97271;-65
2022/01/19 16:51:32;;;;;;;15.37;9.40;;;;;;;2.88;68.20;97005.53;10364585;28;97107;-64
2022/01/19 16:56:35;;;;;;;13.48;8.30;;;;;;;2.84;68.53;97004.00;10369557;28;97237;-65
2022/01/19 17:01:40;;;;;;;11.90;7.20;;;;;;;2.72;68.98;97010.66;10359165;28;96725;-64
2022/01/19 17:06:43;;;;;;;12.03;8.67;;;;;;;2.68;68.23;97010.00;10370258;28;96934;-63
2022/01/19 17:11:47;;;;;;;14.15;7.65;;;;;;;2.66;68.26;96995.50;10367012;28;96859;-64
2022/01/19 17:17:06;;;;;;;11.57;6.72;;;;;;;2.55;68.08;96987.50;10379393;28;97018;-63
2022/01/19 17:22:11;;;;;;;11.27;7.05;;;;;;;2.53;67.94;96976.41;10354062;28;96838;-64
2022/01/19 17:27:14;;;;;;;7.53;4.85;;;;;;;2.44;67.82;96972.56;10362861;28;98675;-64
2022/01/19 17:32:23;;;;;;;9.20;5.05;;;;;;;2.40;68.38;96989.94;10355760;28;97211;-67
2022/01/19 17:37:26;;;;;;;6.68;3.80;;;;;;;2.40;68.36;96994.25;10357149;28;97276;-64
2022/01/19 17:42:31;;;;;;;6.50;4.25;;;;;;;2.40;68.10;96991.69;10367398;28;98201;-65
2022/01/19 17:47:47;;;;;;;7.93;4.87;;;;;;;2.33;67.49;96995.50;10366248;28;97233;-64
2022/01/19 17:52:50;;;;;;;7.57;5.22;;;;;;;2.24;68.17;97007.94;10356401;28;98346;-64
2022/01/19 17:57:53;;;;;;;11.07;7.07;;;;;;;2.24;67.79;96995.03;10362159;28;98860;-65
2022/01/19 18:02:58;;;;;;;10.65;7.20;;;;;;;2.21;67.98;96990.03;10371804;28;96945;-64
2022/01/19 18:08:02;;;;;;;10.13;5.80;;;;;;;2.12;67.87;96995.66;10359269;28;97078;-63
2022/01/19 18:13:04;;;;;;;11.32;7.60;;;;;;;2.10;67.92;96988.00;10367093;28;97344;-63
2022/01/19 18:18:09;;;;;;;11.27;6.82;;;;;;;2.04;67.78;96995.22;10376381;28;97361;-65
2022/01/19 18:23:12;;;;;;;10.60;5.88;;;;;;;2.00;68.18;96998.84;10358031;28;97170;-64
2022/01/19 18:28:14;;;;;;;13.75;10.52;;;;;;;1.84;68.23;96991.88;10356208;28;96837;-66
2022/01/19 18:33:19;;;;;;;11.25;6.60;;;;;;;1.56;68.06;96985.50;10365321;28;97297;-64
2022/01/19 18:38:22;;;;;;;8.88;5.38;;;;;;;1.40;69.46;96987.16;10363349;28;98139;-64
2022/01/19 18:43:27;;;;;;;9.55;5.72;;;;;;;1.41;68.40;96998.28;10351808;28;97028;-64
2022/01/19 18:48:31;;;;;;;12.13;6.90;;;;;;;1.38;68.70;97004.38;10352979;28;96770;-64
2022/01/19 18:53:35;;;;;;;10.23;6.20;;;;;;;1.39;69.08;97013.78;10358303;28;97002;-63
2022/01/19 18:58:39;;;;;;;9.55;6.15;;;;;;;1.35;68.67;97005.38;10361001;28;99211;-64
2022/01/19 19:03:44;;;;;;;7.00;4.13;;;;;;;1.33;69.34;97006.34;10362303;28;100556;-64
2022/01/19 19:08:48;;;;;;;7.47;4.07;;;;;;;1.33;69.03;97006.34;10346701;28;98747;-63
2022/01/19 19:13:51;;;;;;;6.93;3.72;;;;;;;1.31;68.49;97008.16;10362173;28;96979;-65
2022/01/19 19:18:55;;;;;;;7.63;4.50;;;;;;;1.37;68.96;97002.75;10363818;28;97146;-64
2022/01/19 19:23:58;;;;;;;8.10;4.97;;;;;;;1.34;68.25;97002.88;10355677;28;97039;-64
2022/01/19 19:29:01;;;;;;;8.20;4.68;;;;;;;1.35;68.85;96989.09;10344709;28;97250;-64
2022/01/19 19:34:05;;;;;;;8.85;5.25;;;;;;;1.17;68.81;96998.50;10350699;28;97765;-64
2022/01/19 19:39:08;;;;;;;6.78;4.35;;;;;;;1.02;68.78;96987.19;10364085;28;96920;-63
2022/01/19 19:44:11;;;;;;;8.02;4.45;;;;;;;0.95;68.70;96985.81;10354802;28;98702;-63
2022/01/19 19:49:16;;;;;;;8.93;5.05;;;;;;;0.90;69.31;96987.75;10356563;28;96826;-64
2022/01/19 19:54:20;;;;;;;9.15;5.32;;;;;;;0.86;68.74;96981.06;10349424;28;97457;-64
2022/01/19 19:59:24;;;;;;;8.93;5.10;;;;;;;0.73;68.73;96981.63;10355273;28;97723;-63
2022/01/19 20:04:28;;;;;;;6.47;4.00;;;;;;;0.70;69.17;97002.34;10359460;28;97010;-63
2022/01/19 20:09:32;;;;;;;8.80;4.10;;;;;;;0.64;68.53;96988.91;10351198;28;97920;-63
2022/01/19 20:14:35;;;;;;;6.45;3.58;;;;;;;0.65;69.07;97016.31;10355777;28;97833;-63
2022/01/19 20:19:40;;;;;;;6.63;4.03;;;;;;;0.70;68.91;97032.38;10344769;28;97589;-63
2022/01/19 20:24:43;;;;;;;6.97;4.20;;;;;;;0.74;68.76;97019.31;10354375;28;96919;-63
2022/01/19 20:29:47;;;;;;;8.50;4.07;;;;;;;0.69;68.57;97010.97;10359982;28;100294;-63
2022/01/19 20:34:52;;;;;;;8.57;4.32;;;;;;;0.67;68.78;97020.50;10358571;28;96748;-64
2022/01/19 20:39:55;;;;;;;6.10;4.32;;;;;;;0.71;68.78;97027.16;10356074;28;100223;-63
2022/01/19 20:44:58;;;;;;;7.30;4.10;;;;;;;0.63;69.10;97036.94;10370960;28;96959;-63
2022/01/19 20:50:07;;;;;;;7.35;4.75;;;;;;;0.62;69.17;97025.00;10368938;28;98274;-63
2022/01/19 20:55:10;;;;;;;7.43;4.70;;;;;;;0.56;69.54;97014.97;10356702;28;97990;-63
2022/01/19 21:00:20;;;;;;;6.70;4.43;;;;;;;0.56;69.33;97035.53;10352966;28;97157;-65
2022/01/19 21:05:25;;;;;;;6.78;4.38;;;;;;;0.41;69.44;97043.03;10364934;28;97405;-63
2022/01/19 21:10:28;;;;;;;8.10;5.05;;;;;;;0.20;69.73;97043.91;10359576;28;99563;-62
2022/01/19 21:15:31;;;;;;;8.32;5.15;;;;;;;0.18;69.93;97031.13;10360938;28;96857;-63
2022/01/19 21:20:36;;;;;;;7.65;5.18;;;;;;;0.05;69.86;97035.94;10360585;28;97099;-65
2022/01/19 21:25:38;;;;;;;9.07;5.27;;;;;;;-0.17;70.67;97046.25;10361076;28;97063;-64
2022/01/19 21:30:41;;;;;;;8.45;5.07;;;;;;;-0.23;70.76;97045.66;10367427;28;97566;-63
2022/01/19 21:35:46;;;;;;;8.82;5.80;;;;;;;-0.17;70.46;97051.41;10355256;28;97457;-63
2022/01/19 21:40:49;;;;;;;11.00;6.60;;;;;;;-0.15;70.47;97054.75;10363786;28;97141;-64
2022/01/19 21:45:52;;;;;;;10.90;6.35;;;;;;;-0.14;70.42;97053.84;10367930;28;97019;-66
2022/01/19 21:50:59;;;;;;;17.75;9.23;;;;;;;-0.24;71.02;97074.81;10367647;28;98181;-63
2022/01/19 21:56:04;;;;;;;8.27;5.50;;;;;;;-0.38;70.99;97073.63;10364963;28;97144;-63
2022/01/19 22:01:07;;;;;;;8.93;5.68;;;;;;;-0.14;71.23;97060.72;10379297;28;98120;-63
2022/01/19 22:06:12;;;;;;;9.15;5.38;;;;;;;0.10;70.75;97055.47;10372176;28;97075;-63
2022/01/19 22:11:15;;;;;;;8.70;5.47;;;;;;;0.22;70.03;97062.69;10362293;28;100492;-65
2022/01/19 22:16:30;;;;;;;9.97;5.83;;;;;;;0.37;70.12;97067.16;10362965;28;97193;-63
2022/01/19 22:21:34;;;;;;;9.07;5.68;;;;;;;0.46;70.04;97059.97;10360020;28;96999;-64
2022/01/19 22:26:37;;;;;;;9.60;6.03;;;;;;;0.37;70.46;97061.19;10357922;28;98416;-63
2022/01/19 22:31:40;;;;;;;9.05;5.85;;;;;;;0.41;70.59;97067.88;10365540;28;97378;-63
2022/01/19 22:36:46;;;;;;;9.63;5.97;;;;;;;0.39;70.57;97072.25;10348270;28;98844;-64
2022/01/19 22:41:50;;;;;;;9.40;5.47;;;;;;;0.39;70.83;97069.69;10353957;28;96877;-67
2022/01/19 22:46:54;;;;;;;6.32;4.40;;;;;;;0.42;69.92;97065.25;10358470;28;98871;-63
2022/01/19 22:51:59;;;;;;;5.80;3.70;;;;;;;0.40;70.23;97067.03;10350200;28;97132;-63
2022/01/19 22:57:02;;;;;;;4.25;2.80;;;;;;;0.52;69.93;97059.72;10374147;28;97100;-63
2022/01/19 23:02:05;;;;;;;4.93;3.58;;;;;;;0.54;69.48;97057.91;10361251;28;97021;-63
2022/01/19 23:07:10;;;;;;;9.35;5.07;;;;;;;0.54;69.46;97078.50;10352345;28;96926;-62
2022/01/19 23:12:13;;;;;;;18.75;10.13;;;;;;;0.49;69.81;97076.09;10347970;28;97256;-63
2022/01/19 23:17:16;;;;;;;10.32;6.00;;;;;;;0.50;69.83;97071.81;10355942;28;98295;-63
2022/01/19 23:22:21;;;;;;;7.70;5.20;;;;;;;0.53;69.62;97063.94;10393264;27;98580;-63
2022/01/19 23:27:29;;;;;;;7.82;4.45;;;;;;;0.50;69.45;97066.69;10350104;28;98546;-64
2022/01/19 23:32:39;;;;;;;9.77;5.63;;;;;;;0.54;69.61;97063.06;10361066;28;97414;-63
2022/01/19 23:37:57;;;;;;;8.98;5.63;;;;;;;0.42;69.74;97049.00;10353813;28;98479;-63
2022/01/19 23:48:20;;;;;;;8.82;5.10;;;;;;;0.48;69.67;97058.16;10272625;28;98532;-63
2022/01/19 23:53:24;;;;;;;6.15;4.45;;;;;;;0.45;69.81;97046.28;10275605;28;98892;-64
2022/01/19 23:58:31;;;;;;;10.82;5.60;;;;;;;0.31;69.67;97051.19;10274427;28;100335;-63
